KTBR/TBR METAR and TAF weather

Enter ICAO airport designator
Station Type Date Time Source
KTBR METAR 2022/10/01 07:55 UTC NOAA

KTBR 010755Z AUTO 00000KT 10SM OVC090 15/13 A2979 RMK AO2 T01500129


Station Type Date Time Source
KTBR Decoded METAR 2022/10/01 07:55 UTC NOAA

Statesboro, Statesboro-Bulloch County Airport, GA, United States (KTBR) 32-28-59N 081-44-14W
Oct 01, 2022 - 03:55 AM EDT / 2022.10.01 0755 UTC
Wind: Calm:0
Visibility: 10 mile(s):0
Sky conditions: overcast
Temperature: 59.0 F (15.0 C)
Dew Point: 55.2 F (12.9 C)
Relative Humidity: 87%
Pressure (altimeter): 29.79 in. Hg (1008 hPa)
ob: KTBR 010755Z AUTO 00000KT 10SM OVC090 15/13 A2979 RMK AO2 T01500129
cycle: 8

Station Type Date Time Source
KTBR TAF UTC NOAA

Error!

Example: see airport list